sensor_id;sensor_type;location;lat;lon;timestamp;temperature;humidity
29453;DHT22;16424;50.956;5.320;2023-01-28T00:01:13;5.10;99.90
29453;DHT22;16424;50.956;5.320;2023-01-28T00:03:39;5.20;99.90
29453;DHT22;16424;50.956;5.320;2023-01-28T00:06:10;5.20;99.90
29453;DHT22;16424;50.956;5.320;2023-01-28T00:08:37;5.10;99.90
29453;DHT22;16424;50.956;5.320;2023-01-28T00:11:07;5.10;99.90
29453;DHT22;16424;50.956;5.320;2023-01-28T00:13:33;5.00;99.90
29453;DHT22;16424;50.956;5.320;2023-01-28T00:16:01;5.10;99.90
29453;DHT22;16424;50.956;5.320;2023-01-28T00:18:28;5.10;99.90
29453;DHT22;16424;50.956;5.320;2023-01-28T00:23:27;5.10;99.90
29453;DHT22;16424;50.956;5.320;2023-01-28T00:25:53;5.00;99.90
29453;DHT22;16424;50.956;5.320;2023-01-28T00:28:20;5.00;99.90
29453;DHT22;16424;50.956;5.320;2023-01-28T00:30:46;5.00;99.90
29453;DHT22;16424;50.956;5.320;2023-01-28T00:33:12;5.00;99.90
29453;DHT22;16424;50.956;5.320;2023-01-28T00:35:37;5.00;99.90
29453;DHT22;16424;50.956;5.320;2023-01-28T00:38:03;5.00;99.90
29453;DHT22;16424;50.956;5.320;2023-01-28T00:40:29;4.80;99.90
29453;DHT22;16424;50.956;5.320;2023-01-28T00:42:55;4.70;99.90
29453;DHT22;16424;50.956;5.320;2023-01-28T00:45:21;4.70;99.90
29453;DHT22;16424;50.956;5.320;2023-01-28T00:47:47;4.70;99.90
29453;DHT22;16424;50.956;5.320;2023-01-28T00:50:13;4.80;99.90
29453;DHT22;16424;50.956;5.320;2023-01-28T00:52:39;4.80;99.90
29453;DHT22;16424;50.956;5.320;2023-01-28T00:55:05;4.80;99.90
29453;DHT22;16424;50.956;5.320;2023-01-28T00:57:31;4.80;99.90
29453;DHT22;16424;50.956;5.320;2023-01-28T00:59:58;4.80;99.90
29453;DHT22;16424;50.956;5.320;2023-01-28T01:02:24;4.90;99.90
29453;DHT22;16424;50.956;5.320;2023-01-28T01:04:50;4.90;99.90
29453;DHT22;16424;50.956;5.320;2023-01-28T01:07:28;5.00;99.90
29453;DHT22;16424;50.956;5.320;2023-01-28T01:10:02;5.00;99.90
29453;DHT22;16424;50.956;5.320;2023-01-28T01:12:28;5.10;99.90
29453;DHT22;16424;50.956;5.320;2023-01-28T01:14:55;5.10;99.90
29453;DHT22;16424;50.956;5.320;2023-01-28T01:17:21;5.10;99.90
29453;DHT22;16424;50.956;5.320;2023-01-28T01:19:47;5.10;99.90
29453;DHT22;16424;50.956;5.320;2023-01-28T01:22:13;5.10;99.90
29453;DHT22;16424;50.956;5.320;2023-01-28T01:24:38;5.00;99.90
29453;DHT22;16424;50.956;5.320;2023-01-28T01:27:04;5.00;99.90
29453;DHT22;16424;50.956;5.320;2023-01-28T01:29:30;4.80;99.90
29453;DHT22;16424;50.956;5.320;2023-01-28T01:31:58;4.80;99.90
29453;DHT22;16424;50.956;5.320;2023-01-28T01:34:24;4.70;99.90
29453;DHT22;16424;50.956;5.320;2023-01-28T01:36:49;4.70;99.90
29453;DHT22;16424;50.956;5.320;2023-01-28T01:39:15;4.60;99.90
29453;DHT22;16424;50.956;5.320;2023-01-28T01:41:41;4.60;99.90
29453;DHT22;16424;50.956;5.320;2023-01-28T01:50:35;4.80;99.90
29453;DHT22;16424;50.956;5.320;2023-01-28T01:53:08;4.80;99.90
29453;DHT22;16424;50.956;5.320;2023-01-28T01:55:38;4.70;99.90
29453;DHT22;16424;50.956;5.320;2023-01-28T01:58:10;4.70;99.90
29453;DHT22;16424;50.956;5.320;2023-01-28T02:00:38;4.80;99.90
29453;DHT22;16424;50.956;5.320;2023-01-28T02:03:05;4.80;99.90
29453;DHT22;16424;50.956;5.320;2023-01-28T02:05:31;4.80;99.90
29453;DHT22;16424;50.956;5.320;2023-01-28T02:07:58;4.70;99.90
29453;DHT22;16424;50.956;5.320;2023-01-28T02:10:44;4.70;99.90
29453;DHT22;16424;50.956;5.320;2023-01-28T02:13:11;4.50;99.90
29453;DHT22;16424;50.956;5.320;2023-01-28T02:15:37;4.60;99.90
29453;DHT22;16424;50.956;5.320;2023-01-28T02:18:03;4.50;99.90
29453;DHT22;16424;50.956;5.320;2023-01-28T02:20:44;4.60;99.90
29453;DHT22;16424;50.956;5.320;2023-01-28T02:26:44;4.60;99.90
29453;DHT22;16424;50.956;5.320;2023-01-28T02:29:24;4.60;99.90
29453;DHT22;16424;50.956;5.320;2023-01-28T02:32:14;4.80;99.90
29453;DHT22;16424;50.956;5.320;2023-01-28T02:35:00;4.70;99.90
29453;DHT22;16424;50.956;5.320;2023-01-28T02:37:39;4.60;99.90
29453;DHT22;16424;50.956;5.320;2023-01-28T02:40:11;4.70;99.90
29453;DHT22;16424;50.956;5.320;2023-01-28T02:42:39;4.70;99.90
29453;DHT22;16424;50.956;5.320;2023-01-28T02:45:24;4.50;99.90
29453;DHT22;16424;50.956;5.320;2023-01-28T02:48:10;4.50;99.90
29453;DHT22;16424;50.956;5.320;2023-01-28T02:50:53;4.50;99.90
29453;DHT22;16424;50.956;5.320;2023-01-28T02:53:44;4.50;99.90
29453;DHT22;16424;50.956;5.320;2023-01-28T02:59:07;4.80;99.90
29453;DHT22;16424;50.956;5.320;2023-01-28T03:05:14;4.80;99.90
29453;DHT22;16424;50.956;5.320;2023-01-28T03:07:45;4.80;99.90
29453;DHT22;16424;50.956;5.320;2023-01-28T03:10:14;4.80;99.90
29453;DHT22;16424;50.956;5.320;2023-01-28T03:12:46;4.90;99.90
29453;DHT22;16424;50.956;5.320;2023-01-28T03:15:36;4.80;99.90
29453;DHT22;16424;50.956;5.320;2023-01-28T03:18:31;4.80;99.90
29453;DHT22;16424;50.956;5.320;2023-01-28T03:21:28;4.80;99.90
29453;DHT22;16424;50.956;5.320;2023-01-28T03:24:23;4.70;99.90
29453;DHT22;16424;50.956;5.320;2023-01-28T03:30:18;4.40;99.90
29453;DHT22;16424;50.956;5.320;2023-01-28T03:33:04;4.40;99.90
29453;DHT22;16424;50.956;5.320;2023-01-28T03:35:49;4.50;99.90
29453;DHT22;16424;50.956;5.320;2023-01-28T03:38:33;4.40;99.90
29453;DHT22;16424;50.956;5.320;2023-01-28T03:41:08;4.40;99.90
29453;DHT22;16424;50.956;5.320;2023-01-28T03:43:35;4.40;99.90
29453;DHT22;16424;50.956;5.320;2023-01-28T03:46:02;4.40;99.90
29453;DHT22;16424;50.956;5.320;2023-01-28T03:48:28;4.40;99.90
29453;DHT22;16424;50.956;5.320;2023-01-28T03:50:54;4.40;99.90
29453;DHT22;16424;50.956;5.320;2023-01-28T03:53:21;4.40;99.90
29453;DHT22;16424;50.956;5.320;2023-01-28T03:55:49;4.60;99.90
29453;DHT22;16424;50.956;5.320;2023-01-28T03:58:16;4.40;99.90
29453;DHT22;16424;50.956;5.320;2023-01-28T04:00:42;4.40;99.90
29453;DHT22;16424;50.956;5.320;2023-01-28T04:03:15;4.40;99.90
29453;DHT22;16424;50.956;5.320;2023-01-28T04:06:01;4.40;99.90
29453;DHT22;16424;50.956;5.320;2023-01-28T04:08:28;4.40;99.90
29453;DHT22;16424;50.956;5.320;2023-01-28T04:10:54;4.40;99.90
29453;DHT22;16424;50.956;5.320;2023-01-28T04:13:20;4.30;99.90
29453;DHT22;16424;50.956;5.320;2023-01-28T04:15:46;4.40;99.90
29453;DHT22;16424;50.956;5.320;2023-01-28T04:18:12;4.30;99.90
29453;DHT22;16424;50.956;5.320;2023-01-28T04:20:37;4.20;99.90
29453;DHT22;16424;50.956;5.320;2023-01-28T04:23:04;4.20;99.90
29453;DHT22;16424;50.956;5.320;2023-01-28T04:25:31;4.30;99.90
29453;DHT22;16424;50.956;5.320;2023-01-28T04:27:57;4.30;99.90
29453;DHT22;16424;50.956;5.320;2023-01-28T04:30:23;4.40;99.90
29453;DHT22;16424;50.956;5.320;2023-01-28T04:32:49;4.40;99.90
29453;DHT22;16424;50.956;5.320;2023-01-28T04:35:18;4.30;99.90
29453;DHT22;16424;50.956;5.320;2023-01-28T04:37:44;4.30;99.90
29453;DHT22;16424;50.956;5.320;2023-01-28T04:40:11;4.20;99.90
29453;DHT22;16424;50.956;5.320;2023-01-28T04:42:37;4.20;99.90
29453;DHT22;16424;50.956;5.320;2023-01-28T04:45:04;4.10;99.90
29453;DHT22;16424;50.956;5.320;2023-01-28T04:47:30;4.20;99.90
29453;DHT22;16424;50.956;5.320;2023-01-28T04:49:55;4.20;99.90
29453;DHT22;16424;50.956;5.320;2023-01-28T04:52:21;4.20;99.90
29453;DHT22;16424;50.956;5.320;2023-01-28T04:54:47;4.20;99.90
29453;DHT22;16424;50.956;5.320;2023-01-28T04:57:12;4.10;99.90
29453;DHT22;16424;50.956;5.320;2023-01-28T04:59:38;4.30;99.90
29453;DHT22;16424;50.956;5.320;2023-01-28T05:02:04;4.20;99.90
29453;DHT22;16424;50.956;5.320;2023-01-28T05:04:30;4.30;99.90
29453;DHT22;16424;50.956;5.320;2023-01-28T05:06:55;4.20;99.90
29453;DHT22;16424;50.956;5.320;2023-01-28T05:09:22;4.20;99.90
29453;DHT22;16424;50.956;5.320;2023-01-28T05:11:48;4.30;99.90
29453;DHT22;16424;50.956;5.320;2023-01-28T05:14:14;4.30;99.90
29453;DHT22;16424;50.956;5.320;2023-01-28T05:16:39;4.20;99.90
29453;DHT22;16424;50.956;5.320;2023-01-28T05:19:05;4.30;99.90
29453;DHT22;16424;50.956;5.320;2023-01-28T05:21:31;4.30;99.90
29453;DHT22;16424;50.956;5.320;2023-01-28T05:23:56;4.30;99.90
29453;DHT22;16424;50.956;5.320;2023-01-28T05:26:22;4.20;99.90
29453;DHT22;16424;50.956;5.320;2023-01-28T05:28:48;4.10;99.90
29453;DHT22;16424;50.956;5.320;2023-01-28T05:31:15;4.10;99.90
29453;DHT22;16424;50.956;5.320;2023-01-28T05:33:41;4.10;99.90
29453;DHT22;16424;50.956;5.320;2023-01-28T05:36:07;4.10;99.90
29453;DHT22;16424;50.956;5.320;2023-01-28T05:38:32;4.20;99.90
29453;DHT22;16424;50.956;5.320;2023-01-28T05:40:58;4.20;99.90
29453;DHT22;16424;50.956;5.320;2023-01-28T05:43:24;4.10;99.90
29453;DHT22;16424;50.956;5.320;2023-01-28T05:45:49;4.00;99.90
29453;DHT22;16424;50.956;5.320;2023-01-28T05:48:15;3.80;99.90
29453;DHT22;16424;50.956;5.320;2023-01-28T05:50:40;3.90;99.90
29453;DHT22;16424;50.956;5.320;2023-01-28T05:53:06;3.90;99.90
29453;DHT22;16424;50.956;5.320;2023-01-28T05:55:32;3.90;99.90
29453;DHT22;16424;50.956;5.320;2023-01-28T05:57:58;3.80;99.90
29453;DHT22;16424;50.956;5.320;2023-01-28T06:00:24;3.90;99.90
29453;DHT22;16424;50.956;5.320;2023-01-28T06:02:52;3.90;99.90
29453;DHT22;16424;50.956;5.320;2023-01-28T06:05:19;3.90;99.90
29453;DHT22;16424;50.956;5.320;2023-01-28T06:07:45;4.00;99.90
29453;DHT22;16424;50.956;5.320;2023-01-28T06:10:11;4.00;99.90
29453;DHT22;16424;50.956;5.320;2023-01-28T06:12:37;4.00;99.90
29453;DHT22;16424;50.956;5.320;2023-01-28T06:15:02;4.00;99.90
29453;DHT22;16424;50.956;5.320;2023-01-28T06:17:28;3.90;99.90
29453;DHT22;16424;50.956;5.320;2023-01-28T06:19:54;3.90;99.90
29453;DHT22;16424;50.956;5.320;2023-01-28T06:22:20;3.90;99.90
29453;DHT22;16424;50.956;5.320;2023-01-28T06:24:45;3.90;99.90
29453;DHT22;16424;50.956;5.320;2023-01-28T06:27:11;3.80;99.90
29453;DHT22;16424;50.956;5.320;2023-01-28T06:29:39;3.50;99.90
29453;DHT22;16424;50.956;5.320;2023-01-28T06:32:05;3.60;99.90
29453;DHT22;16424;50.956;5.320;2023-01-28T06:34:31;3.80;99.90
29453;DHT22;16424;50.956;5.320;2023-01-28T06:36:57;3.80;99.90
29453;DHT22;16424;50.956;5.320;2023-01-28T06:39:23;3.70;99.90
29453;DHT22;16424;50.956;5.320;2023-01-28T06:41:49;3.70;99.90
29453;DHT22;16424;50.956;5.320;2023-01-28T06:44:15;3.80;99.90
29453;DHT22;16424;50.956;5.320;2023-01-28T06:46:41;3.70;99.90
29453;DHT22;16424;50.956;5.320;2023-01-28T06:49:07;3.60;99.90
29453;DHT22;16424;50.956;5.320;2023-01-28T06:51:33;3.50;99.90
29453;DHT22;16424;50.956;5.320;2023-01-28T06:53:58;3.60;99.90
29453;DHT22;16424;50.956;5.320;2023-01-28T06:56:24;3.70;99.90
29453;DHT22;16424;50.956;5.320;2023-01-28T06:58:50;3.40;99.90
29453;DHT22;16424;50.956;5.320;2023-01-28T07:01:16;3.40;99.90
29453;DHT22;16424;50.956;5.320;2023-01-28T07:03:41;3.40;99.90
29453;DHT22;16424;50.956;5.320;2023-01-28T07:06:08;3.40;99.90
29453;DHT22;16424;50.956;5.320;2023-01-28T07:08:34;3.50;99.90
29453;DHT22;16424;50.956;5.320;2023-01-28T07:11:02;3.60;99.90
29453;DHT22;16424;50.956;5.320;2023-01-28T07:13:29;3.60;99.90
29453;DHT22;16424;50.956;5.320;2023-01-28T07:15:54;3.50;99.90
29453;DHT22;16424;50.956;5.320;2023-01-28T07:18:20;3.40;99.90
29453;DHT22;16424;50.956;5.320;2023-01-28T07:20:46;3.50;99.90
29453;DHT22;16424;50.956;5.320;2023-01-28T07:23:11;3.60;99.90
29453;DHT22;16424;50.956;5.320;2023-01-28T07:25:37;3.70;99.90
29453;DHT22;16424;50.956;5.320;2023-01-28T07:28:03;3.80;99.90
29453;DHT22;16424;50.956;5.320;2023-01-28T07:30:29;3.90;99.90
29453;DHT22;16424;50.956;5.320;2023-01-28T07:32:56;4.00;99.90
29453;DHT22;16424;50.956;5.320;2023-01-28T07:35:22;4.00;99.90
29453;DHT22;16424;50.956;5.320;2023-01-28T07:37:59;4.10;99.90
29453;DHT22;16424;50.956;5.320;2023-01-28T07:40:26;3.90;99.90
29453;DHT22;16424;50.956;5.320;2023-01-28T07:42:52;3.80;99.90
29453;DHT22;16424;50.956;5.320;2023-01-28T07:45:20;3.70;99.90
29453;DHT22;16424;50.956;5.320;2023-01-28T07:48:03;3.70;99.90
29453;DHT22;16424;50.956;5.320;2023-01-28T07:50:30;3.70;99.90
29453;DHT22;16424;50.956;5.320;2023-01-28T07:52:57;3.80;99.90
29453;DHT22;16424;50.956;5.320;2023-01-28T07:55:23;3.80;99.90
29453;DHT22;16424;50.956;5.320;2023-01-28T07:57:51;3.90;99.90
29453;DHT22;16424;50.956;5.320;2023-01-28T08:00:18;4.00;99.90
29453;DHT22;16424;50.956;5.320;2023-01-28T08:02:44;4.00;99.90
29453;DHT22;16424;50.956;5.320;2023-01-28T08:05:14;4.00;99.90
29453;DHT22;16424;50.956;5.320;2023-01-28T08:07:40;4.10;99.90
29453;DHT22;16424;50.956;5.320;2023-01-28T08:10:06;3.90;99.90
29453;DHT22;16424;50.956;5.320;2023-01-28T08:12:32;3.80;99.90
29453;DHT22;16424;50.956;5.320;2023-01-28T08:14:57;4.00;99.90
29453;DHT22;16424;50.956;5.320;2023-01-28T08:17:23;4.00;99.90
29453;DHT22;16424;50.956;5.320;2023-01-28T08:19:49;4.10;99.90
29453;DHT22;16424;50.956;5.320;2023-01-28T08:22:14;4.20;99.90
29453;DHT22;16424;50.956;5.320;2023-01-28T08:24:40;4.20;99.90
29453;DHT22;16424;50.956;5.320;2023-01-28T08:27:08;4.30;99.90
29453;DHT22;16424;50.956;5.320;2023-01-28T08:29:34;4.20;99.90
29453;DHT22;16424;50.956;5.320;2023-01-28T08:32:00;4.10;99.90
29453;DHT22;16424;50.956;5.320;2023-01-28T08:34:25;4.00;99.90
29453;DHT22;16424;50.956;5.320;2023-01-28T08:36:51;4.00;99.90
29453;DHT22;16424;50.956;5.320;2023-01-28T08:39:16;3.90;99.90
29453;DHT22;16424;50.956;5.320;2023-01-28T08:41:42;3.80;99.90
29453;DHT22;16424;50.956;5.320;2023-01-28T08:44:08;3.80;99.90
29453;DHT22;16424;50.956;5.320;2023-01-28T08:46:33;3.80;99.90
29453;DHT22;16424;50.956;5.320;2023-01-28T08:48:59;4.00;99.90
29453;DHT22;16424;50.956;5.320;2023-01-28T08:51:25;4.10;99.90
29453;DHT22;16424;50.956;5.320;2023-01-28T08:53:50;4.10;99.90
29453;DHT22;16424;50.956;5.320;2023-01-28T08:56:16;4.10;99.90
29453;DHT22;16424;50.956;5.320;2023-01-28T08:58:41;4.20;99.90
29453;DHT22;16424;50.956;5.320;2023-01-28T09:01:07;4.10;99.90
29453;DHT22;16424;50.956;5.320;2023-01-28T09:03:33;4.10;99.90
29453;DHT22;16424;50.956;5.320;2023-01-28T09:06:02;4.00;99.90
29453;DHT22;16424;50.956;5.320;2023-01-28T09:08:27;3.90;99.90
29453;DHT22;16424;50.956;5.320;2023-01-28T09:10:55;3.80;99.90
29453;DHT22;16424;50.956;5.320;2023-01-28T09:13:21;3.80;99.90
29453;DHT22;16424;50.956;5.320;2023-01-28T09:15:47;3.80;99.90
29453;DHT22;16424;50.956;5.320;2023-01-28T09:18:13;3.80;99.90
29453;DHT22;16424;50.956;5.320;2023-01-28T09:20:38;3.90;99.90
29453;DHT22;16424;50.956;5.320;2023-01-28T09:23:05;3.90;99.90
29453;DHT22;16424;50.956;5.320;2023-01-28T09:25:31;3.80;99.90
29453;DHT22;16424;50.956;5.320;2023-01-28T09:27:57;3.90;99.90
29453;DHT22;16424;50.956;5.320;2023-01-28T09:30:23;3.90;99.90
29453;DHT22;16424;50.956;5.320;2023-01-28T09:32:49;3.90;99.90
29453;DHT22;16424;50.956;5.320;2023-01-28T09:35:16;3.90;99.90
29453;DHT22;16424;50.956;5.320;2023-01-28T09:37:42;3.80;99.90
29453;DHT22;16424;50.956;5.320;2023-01-28T09:40:25;3.70;99.90
29453;DHT22;16424;50.956;5.320;2023-01-28T09:43:13;3.80;99.90
29453;DHT22;16424;50.956;5.320;2023-01-28T09:45:47;3.60;99.90
29453;DHT22;16424;50.956;5.320;2023-01-28T09:48:18;3.70;99.90
29453;DHT22;16424;50.956;5.320;2023-01-28T09:50:49;3.90;99.90
29453;DHT22;16424;50.956;5.320;2023-01-28T09:53:22;3.90;99.90
29453;DHT22;16424;50.956;5.320;2023-01-28T09:56:20;3.80;99.90
29453;DHT22;16424;50.956;5.320;2023-01-28T09:58:47;3.60;99.90
29453;DHT22;16424;50.956;5.320;2023-01-28T10:01:22;3.50;99.90
29453;DHT22;16424;50.956;5.320;2023-01-28T10:04:20;3.60;99.90
29453;DHT22;16424;50.956;5.320;2023-01-28T10:17:51;3.80;99.90
29453;DHT22;16424;50.956;5.320;2023-01-28T10:20:24;3.80;99.90
29453;DHT22;16424;50.956;5.320;2023-01-28T10:25:25;4.00;99.90
29453;DHT22;16424;50.956;5.320;2023-01-28T10:27:52;4.10;99.90
29453;DHT22;16424;50.956;5.320;2023-01-28T10:33:27;4.30;99.90
29453;DHT22;16424;50.956;5.320;2023-01-28T10:35:51;4.20;99.90
29453;DHT22;16424;50.956;5.320;2023-01-28T10:38:20;4.30;99.90
29453;DHT22;16424;50.956;5.320;2023-01-28T10:40:47;4.20;99.90
29453;DHT22;16424;50.956;5.320;2023-01-28T10:43:19;4.20;99.90
29453;DHT22;16424;50.956;5.320;2023-01-28T10:48:25;4.30;99.90
29453;DHT22;16424;50.956;5.320;2023-01-28T10:50:56;4.40;99.90
29453;DHT22;16424;50.956;5.320;2023-01-28T10:53:43;4.20;99.90
29453;DHT22;16424;50.956;5.320;2023-01-28T10:56:30;4.20;99.90
29453;DHT22;16424;50.956;5.320;2023-01-28T10:59:20;4.20;99.90
29453;DHT22;16424;50.956;5.320;2023-01-28T11:01:52;4.30;99.90
29453;DHT22;16424;50.956;5.320;2023-01-28T11:04:23;4.40;99.90
29453;DHT22;16424;50.956;5.320;2023-01-28T11:06:55;4.40;99.90
29453;DHT22;16424;50.956;5.320;2023-01-28T11:09:27;4.20;99.90
29453;DHT22;16424;50.956;5.320;2023-01-28T11:11:52;4.20;99.90
29453;DHT22;16424;50.956;5.320;2023-01-28T11:14:20;4.30;99.90
29453;DHT22;16424;50.956;5.320;2023-01-28T11:16:46;4.40;99.90
29453;DHT22;16424;50.956;5.320;2023-01-28T11:19:12;4.40;99.90
29453;DHT22;16424;50.956;5.320;2023-01-28T11:21:38;4.20;99.90
29453;DHT22;16424;50.956;5.320;2023-01-28T11:24:12;4.10;99.90
29453;DHT22;16424;50.956;5.320;2023-01-28T11:26:42;4.00;99.90
29453;DHT22;16424;50.956;5.320;2023-01-28T11:29:30;4.00;99.90
29453;DHT22;16424;50.956;5.320;2023-01-28T11:31:56;4.00;99.90
29453;DHT22;16424;50.956;5.320;2023-01-28T11:34:26;4.10;99.90
29453;DHT22;16424;50.956;5.320;2023-01-28T11:37:09;4.00;99.90
29453;DHT22;16424;50.956;5.320;2023-01-28T11:39:36;4.00;99.90
29453;DHT22;16424;50.956;5.320;2023-01-28T11:44:37;4.10;99.90
29453;DHT22;16424;50.956;5.320;2023-01-28T11:50:00;4.10;99.90
29453;DHT22;16424;50.956;5.320;2023-01-28T12:03:22;4.40;99.90
29453;DHT22;16424;50.956;5.320;2023-01-28T12:08:50;4.20;99.90
29453;DHT22;16424;50.956;5.320;2023-01-28T12:17:21;4.70;99.90
29453;DHT22;16424;50.956;5.320;2023-01-28T12:23:02;4.60;99.90
29453;DHT22;16424;50.956;5.320;2023-01-28T12:28:29;4.00;99.90
29453;DHT22;16424;50.956;5.320;2023-01-28T12:31:22;3.90;99.90
29453;DHT22;16424;50.956;5.320;2023-01-28T12:37:08;4.10;99.90
29453;DHT22;16424;50.956;5.320;2023-01-28T12:39:55;4.20;99.90
29453;DHT22;16424;50.956;5.320;2023-01-28T12:45:26;4.90;99.90
29453;DHT22;16424;50.956;5.320;2023-01-28T12:48:11;4.80;99.90
29453;DHT22;16424;50.956;5.320;2023-01-28T12:50:45;4.70;99.90
29453;DHT22;16424;50.956;5.320;2023-01-28T12:53:44;4.60;99.90
29453;DHT22;16424;50.956;5.320;2023-01-28T12:56:15;4.20;99.90
29453;DHT22;16424;50.956;5.320;2023-01-28T12:59:03;4.10;99.90
29453;DHT22;16424;50.956;5.320;2023-01-28T13:01:41;4.30;99.90
29453;DHT22;16424;50.956;5.320;2023-01-28T13:09:35;4.30;99.90
29453;DHT22;16424;50.956;5.320;2023-01-28T13:12:02;4.40;99.90
29453;DHT22;16424;50.956;5.320;2023-01-28T13:14:31;4.50;99.90
29453;DHT22;16424;50.956;5.320;2023-01-28T13:17:11;4.70;99.90
29453;DHT22;16424;50.956;5.320;2023-01-28T13:19:41;4.70;99.90
29453;DHT22;16424;50.956;5.320;2023-01-28T13:22:33;4.60;99.90
29453;DHT22;16424;50.956;5.320;2023-01-28T13:25:23;4.90;99.90
29453;DHT22;16424;50.956;5.320;2023-01-28T13:28:00;5.40;99.90
29453;DHT22;16424;50.956;5.320;2023-01-28T13:30:27;5.70;99.90
29453;DHT22;16424;50.956;5.320;2023-01-28T13:33:05;6.00;99.90
29453;DHT22;16424;50.956;5.320;2023-01-28T13:35:38;6.30;99.90
29453;DHT22;16424;50.956;5.320;2023-01-28T13:38:18;6.10;99.90
29453;DHT22;16424;50.956;5.320;2023-01-28T13:40:55;5.20;99.90
29453;DHT22;16424;50.956;5.320;2023-01-28T13:48:56;4.50;99.90
29453;DHT22;16424;50.956;5.320;2023-01-28T13:51:30;4.40;99.90
29453;DHT22;16424;50.956;5.320;2023-01-28T13:59:52;4.30;99.90
29453;DHT22;16424;50.956;5.320;2023-01-28T14:05:40;4.70;99.90
29453;DHT22;16424;50.956;5.320;2023-01-28T14:09:01;4.70;99.90
29453;DHT22;16424;50.956;5.320;2023-01-28T14:17:16;4.70;99.90
29453;DHT22;16424;50.956;5.320;2023-01-28T14:19:46;4.80;99.90
29453;DHT22;16424;50.956;5.320;2023-01-28T14:22:17;5.00;99.90
29453;DHT22;16424;50.956;5.320;2023-01-28T14:24:44;5.10;99.90
29453;DHT22;16424;50.956;5.320;2023-01-28T14:32:52;5.10;99.90
29453;DHT22;16424;50.956;5.320;2023-01-28T14:35:28;4.80;99.90
29453;DHT22;16424;50.956;5.320;2023-01-28T14:37:55;4.70;99.90
29453;DHT22;16424;50.956;5.320;2023-01-28T14:40:22;4.50;99.90
29453;DHT22;16424;50.956;5.320;2023-01-28T14:42:51;4.50;99.90
29453;DHT22;16424;50.956;5.320;2023-01-28T14:50:27;4.40;99.90
29453;DHT22;16424;50.956;5.320;2023-01-28T14:53:23;4.50;99.90
29453;DHT22;16424;50.956;5.320;2023-01-28T14:58:47;4.70;99.90
29453;DHT22;16424;50.956;5.320;2023-01-28T15:01:21;4.60;99.90
29453;DHT22;16424;50.956;5.320;2023-01-28T15:03:47;4.60;99.90
29453;DHT22;16424;50.956;5.320;2023-01-28T15:06:18;4.60;99.90
29453;DHT22;16424;50.956;5.320;2023-01-28T15:08:45;4.60;99.90
29453;DHT22;16424;50.956;5.320;2023-01-28T15:11:15;4.60;99.90
29453;DHT22;16424;50.956;5.320;2023-01-28T15:13:45;4.70;99.90
29453;DHT22;16424;50.956;5.320;2023-01-28T15:16:23;4.70;99.90
29453;DHT22;16424;50.956;5.320;2023-01-28T15:18:49;4.50;99.90
29453;DHT22;16424;50.956;5.320;2023-01-28T15:21:23;4.60;99.90
29453;DHT22;16424;50.956;5.320;2023-01-28T15:23:56;4.90;99.90
29453;DHT22;16424;50.956;5.320;2023-01-28T15:26:27;5.00;99.90
29453;DHT22;16424;50.956;5.320;2023-01-28T15:28:54;5.00;99.90
29453;DHT22;16424;50.956;5.320;2023-01-28T15:31:32;4.80;99.90
29453;DHT22;16424;50.956;5.320;2023-01-28T15:34:13;4.70;99.90
29453;DHT22;16424;50.956;5.320;2023-01-28T15:36:39;4.50;99.90
29453;DHT22;16424;50.956;5.320;2023-01-28T15:39:16;4.30;99.90
29453;DHT22;16424;50.956;5.320;2023-01-28T15:41:49;4.20;99.90
29453;DHT22;16424;50.956;5.320;2023-01-28T15:44:18;3.90;99.90
29453;DHT22;16424;50.956;5.320;2023-01-28T15:46:46;3.80;99.90
29453;DHT22;16424;50.956;5.320;2023-01-28T15:49:16;3.70;99.90
29453;DHT22;16424;50.956;5.320;2023-01-28T15:51:48;3.90;99.90
29453;DHT22;16424;50.956;5.320;2023-01-28T15:54:16;3.90;99.90
29453;DHT22;16424;50.956;5.320;2023-01-28T15:56:42;3.90;99.90
29453;DHT22;16424;50.956;5.320;2023-01-28T15:59:20;3.90;99.90
29453;DHT22;16424;50.956;5.320;2023-01-28T16:01:47;3.80;99.90
29453;DHT22;16424;50.956;5.320;2023-01-28T16:04:25;3.80;99.90
29453;DHT22;16424;50.956;5.320;2023-01-28T16:06:52;3.70;99.90
29453;DHT22;16424;50.956;5.320;2023-01-28T16:09:38;3.70;99.90
29453;DHT22;16424;50.956;5.320;2023-01-28T16:12:07;3.60;99.90
29453;DHT22;16424;50.956;5.320;2023-01-28T16:14:41;3.50;99.90
29453;DHT22;16424;50.956;5.320;2023-01-28T16:17:08;3.50;99.90
29453;DHT22;16424;50.956;5.320;2023-01-28T16:19:41;3.40;99.90
29453;DHT22;16424;50.956;5.320;2023-01-28T16:22:19;3.40;99.90
29453;DHT22;16424;50.956;5.320;2023-01-28T16:24:52;3.40;99.90
29453;DHT22;16424;50.956;5.320;2023-01-28T16:27:24;3.20;99.90
29453;DHT22;16424;50.956;5.320;2023-01-28T16:29:53;3.00;99.90
29453;DHT22;16424;50.956;5.320;2023-01-28T16:34:55;2.80;99.90
29453;DHT22;16424;50.956;5.320;2023-01-28T16:37:21;2.80;99.90
29453;DHT22;16424;50.956;5.320;2023-01-28T16:39:47;2.70;99.90
29453;DHT22;16424;50.956;5.320;2023-01-28T16:42:13;2.70;99.90
29453;DHT22;16424;50.956;5.320;2023-01-28T16:44:39;2.70;99.90
29453;DHT22;16424;50.956;5.320;2023-01-28T16:47:05;2.70;99.90
29453;DHT22;16424;50.956;5.320;2023-01-28T16:49:31;2.80;99.90
29453;DHT22;16424;50.956;5.320;2023-01-28T16:51:57;2.80;99.90
29453;DHT22;16424;50.956;5.320;2023-01-28T16:54:22;2.80;99.90
29453;DHT22;16424;50.956;5.320;2023-01-28T16:56:48;3.00;99.90
29453;DHT22;16424;50.956;5.320;2023-01-28T16:59:15;2.90;99.90
29453;DHT22;16424;50.956;5.320;2023-01-28T17:01:44;2.90;99.90
29453;DHT22;16424;50.956;5.320;2023-01-28T17:04:10;3.00;99.90
29453;DHT22;16424;50.956;5.320;2023-01-28T17:06:36;3.00;99.90
29453;DHT22;16424;50.956;5.320;2023-01-28T17:09:05;3.00;99.90
29453;DHT22;16424;50.956;5.320;2023-01-28T17:11:32;3.10;99.90
29453;DHT22;16424;50.956;5.320;2023-01-28T17:13:58;3.10;99.90
29453;DHT22;16424;50.956;5.320;2023-01-28T17:16:24;3.10;99.90
29453;DHT22;16424;50.956;5.320;2023-01-28T17:18:50;3.10;99.90
29453;DHT22;16424;50.956;5.320;2023-01-28T17:21:16;3.10;99.90
29453;DHT22;16424;50.956;5.320;2023-01-28T17:23:42;3.10;99.90
29453;DHT22;16424;50.956;5.320;2023-01-28T17:26:10;3.00;99.90
29453;DHT22;16424;50.956;5.320;2023-01-28T17:28:36;2.90;99.90
29453;DHT22;16424;50.956;5.320;2023-01-28T17:31:06;2.90;99.90
29453;DHT22;16424;50.956;5.320;2023-01-28T17:33:32;2.90;99.90
29453;DHT22;16424;50.956;5.320;2023-01-28T17:36:00;2.80;99.90
29453;DHT22;16424;50.956;5.320;2023-01-28T17:38:26;2.80;99.90
29453;DHT22;16424;50.956;5.320;2023-01-28T17:40:52;2.80;99.90
29453;DHT22;16424;50.956;5.320;2023-01-28T17:43:17;2.70;99.90
29453;DHT22;16424;50.956;5.320;2023-01-28T17:45:43;2.50;99.90
29453;DHT22;16424;50.956;5.320;2023-01-28T17:48:09;2.40;99.90
29453;DHT22;16424;50.956;5.320;2023-01-28T17:50:38;2.30;99.90
29453;DHT22;16424;50.956;5.320;2023-01-28T17:53:04;2.20;99.90
29453;DHT22;16424;50.956;5.320;2023-01-28T17:55:30;2.10;99.90
29453;DHT22;16424;50.956;5.320;2023-01-28T17:57:55;2.20;99.90
29453;DHT22;16424;50.956;5.320;2023-01-28T18:00:21;2.10;99.90
29453;DHT22;16424;50.956;5.320;2023-01-28T18:02:50;2.00;99.90